Time;durP1;ratioP1;P1;durP2;ratioP2;P2;SDS_P1;SDS_P2;PMS_P1;PMS_P2;Temp;Humidity;BMP_temperature;BMP_pressure;BME280_temperature;BME280_humidity;BME280_pressure;Samples;Min_cycle;Max_cycle;Signal;HPM_P1;HPM_P2
2021/06/12 00:00:13;;;;;;;16.57;9.85;;;;;;;14.44;79.83;100931.17;1927197;74;21165;-60
2021/06/12 00:02:41;;;;;;;21.50;10.10;;;;;;;14.38;79.71;100928.84;1927150;74;21098;-60
2021/06/12 00:05:10;;;;;;;21.30;10.20;;;;;;;14.33;79.65;100938.81;1927073;74;21533;-60
2021/06/12 00:07:38;;;;;;;14.33;9.75;;;;;;;14.25;79.60;100937.42;1927149;74;21050;-59
2021/06/12 00:10:08;;;;;;;15.35;9.83;;;;;;;14.22;79.76;100937.59;1927203;74;21063;-60
2021/06/12 00:12:37;;;;;;;23.62;10.65;;;;;;;14.21;80.05;100936.34;1925565;74;21060;-59
2021/06/12 00:15:07;;;;;;;14.35;9.90;;;;;;;14.26;80.38;100938.30;1927142;74;21571;-59
2021/06/12 00:17:35;;;;;;;12.82;9.13;;;;;;;14.33;80.77;100933.52;1927019;74;21059;-60
2021/06/12 00:20:04;;;;;;;16.97;12.05;;;;;;;14.41;80.98;100932.67;1927265;74;21509;-59
2021/06/12 00:22:31;;;;;;;17.12;10.70;;;;;;;14.52;81.76;100934.29;1926976;74;21056;-59
2021/06/12 00:24:59;;;;;;;16.82;10.82;;;;;;;14.64;82.00;100934.12;1927154;74;21216;-59
2021/06/12 00:27:27;;;;;;;13.43;9.83;;;;;;;14.72;82.11;100937.70;1927128;74;21098;-58
2021/06/12 00:29:55;;;;;;;16.75;11.40;;;;;;;14.76;81.90;100936.62;1927299;74;21007;-59
2021/06/12 00:32:23;;;;;;;20.60;11.05;;;;;;;14.80;82.07;100941.66;1960210;73;21530;-59
2021/06/12 00:34:50;;;;;;;14.78;9.83;;;;;;;14.87;82.92;100944.84;1961071;73;21422;-59
2021/06/12 00:37:18;;;;;;;18.98;11.03;;;;;;;14.92;83.20;100942.81;1960890;73;21050;-59
2021/06/12 00:39:46;;;;;;;17.42;11.90;;;;;;;14.96;83.07;100942.17;1960890;73;21019;-59
2021/06/12 00:42:15;;;;;;;19.15;12.15;;;;;;;14.98;82.77;100935.84;1960892;73;21046;-59
2021/06/12 00:44:43;;;;;;;17.20;11.75;;;;;;;15.02;82.70;100939.19;1960694;73;21116;-58
2021/06/12 00:47:11;;;;;;;16.93;11.83;;;;;;;15.03;82.67;100925.84;1960953;73;21066;-59
2021/06/12 00:49:39;;;;;;;17.82;12.28;;;;;;;15.06;82.64;100927.46;1960969;73;21457;-58
2021/06/12 00:52:07;;;;;;;18.52;12.43;;;;;;;15.09;82.66;100925.09;1960869;73;21050;-58
2021/06/12 00:54:36;;;;;;;17.82;12.28;;;;;;;15.12;82.58;100927.59;1960830;73;21030;-59
2021/06/12 00:57:05;;;;;;;18.48;12.25;;;;;;;15.12;82.62;100929.77;1960891;73;21504;-59
2021/06/12 00:59:33;;;;;;;18.90;12.68;;;;;;;15.14;82.57;100932.34;1961002;73;21092;-59
2021/06/12 01:02:01;;;;;;;15.95;10.70;;;;;;;15.14;82.48;100925.70;1960879;73;21433;-59
2021/06/12 01:04:29;;;;;;;15.65;9.08;;;;;;;15.15;82.77;100927.44;1960956;73;21531;-59
2021/06/12 01:06:57;;;;;;;18.82;9.65;;;;;;;15.11;82.42;100925.90;1960869;73;21054;-59
2021/06/12 01:09:25;;;;;;;16.87;9.90;;;;;;;14.98;82.10;100934.99;1960841;73;21058;-59
2021/06/12 01:11:58;;;;;;;15.13;9.18;;;;;;;14.81;82.04;100933.23;1960814;73;21027;-59
2021/06/12 01:14:29;;;;;;;16.25;10.23;;;;;;;14.70;82.00;100932.95;1960310;73;21029;-59
2021/06/12 01:17:01;;;;;;;13.83;8.98;;;;;;;14.58;81.97;100930.02;1960849;73;21023;-59
2021/06/12 01:19:40;;;;;;;17.45;10.60;;;;;;;14.52;81.91;100932.12;1960891;73;21191;-59
2021/06/12 01:22:11;;;;;;;18.48;10.38;;;;;;;14.45;81.92;100928.44;1960895;73;21100;-60
2021/06/12 01:24:58;;;;;;;17.30;10.55;;;;;;;14.41;81.89;100928.70;1960167;73;21061;-60
2021/06/12 01:27:28;;;;;;;17.87;11.12;;;;;;;14.37;81.92;100925.83;1960821;73;21530;-60
2021/06/12 01:30:17;;;;;;;15.35;10.03;;;;;;;14.34;81.95;100927.30;1958609;73;21034;-60
2021/06/12 01:32:54;;;;;;;15.75;11.08;;;;;;;14.32;82.04;100927.38;1929959;73;21617;-59
2021/06/12 01:35:24;;;;;;;18.27;10.28;;;;;;;14.28;82.06;100931.97;1927063;74;21513;-58
2021/06/12 01:37:54;;;;;;;17.00;11.33;;;;;;;14.24;82.02;100926.92;1927143;74;21132;-59
2021/06/12 01:40:27;;;;;;;18.62;11.60;;;;;;;14.17;81.95;100934.31;1927046;74;21091;-59
2021/06/12 01:42:57;;;;;;;19.95;11.73;;;;;;;14.13;82.00;100939.83;1926587;74;21035;-59
2021/06/12 01:45:26;;;;;;;23.15;11.83;;;;;;;14.11;82.10;100941.26;1926992;74;21141;-60
2021/06/12 01:47:54;;;;;;;28.90;15.70;;;;;;;14.06;82.07;100942.80;1927088;74;21546;-61
2021/06/12 01:50:24;;;;;;;26.90;14.05;;;;;;;14.06;82.29;100937.50;1926995;74;21086;-59
2021/06/12 01:52:54;;;;;;;24.67;14.80;;;;;;;14.09;82.51;100937.36;1926973;74;21059;-61
2021/06/12 01:55:24;;;;;;;27.07;16.52;;;;;;;14.12;82.65;100935.48;1926937;74;21078;-61
2021/06/12 01:57:53;;;;;;;24.70;15.50;;;;;;;14.21;83.09;100941.16;1927163;74;21070;-60
2021/06/12 02:00:22;;;;;;;20.48;13.28;;;;;;;14.37;83.52;100942.57;1927122;74;21557;-59
2021/06/12 02:02:50;;;;;;;19.90;12.95;;;;;;;14.53;84.00;100938.63;1926986;74;21187;-60
2021/06/12 02:05:21;;;;;;;16.62;11.93;;;;;;;14.71;84.64;100938.17;1927185;74;21521;-59
2021/06/12 02:07:49;;;;;;;19.75;12.70;;;;;;;14.87;84.75;100946.17;1926926;74;21106;-61
2021/06/12 02:10:29;;;;;;;17.92;11.70;;;;;;;15.03;84.66;100952.36;1927044;74;21142;-62
2021/06/12 02:12:57;;;;;;;17.73;10.63;;;;;;;15.17;84.61;100949.42;1927134;74;21140;-64
2021/06/12 02:15:27;;;;;;;15.68;10.53;;;;;;;15.31;84.58;100952.17;1927057;74;21548;-63
2021/06/12 02:17:57;;;;;;;18.00;10.85;;;;;;;15.43;84.58;100963.41;1927040;74;21517;-62
2021/06/12 02:20:26;;;;;;;15.90;10.05;;;;;;;15.56;84.56;100960.08;1926963;74;21137;-60
2021/06/12 02:22:56;;;;;;;14.55;8.48;;;;;;;15.66;84.46;100963.94;1927008;74;21623;-59
2021/06/12 02:25:25;;;;;;;13.30;8.03;;;;;;;15.70;84.02;100965.47;1927083;74;21054;-60
2021/06/12 02:27:56;;;;;;;13.43;8.85;;;;;;;15.74;83.65;100968.36;1927000;74;21105;-60
2021/06/12 02:30:27;;;;;;;13.53;9.78;;;;;;;15.84;83.47;100959.38;1927191;74;21067;-59
2021/06/12 02:33:01;;;;;;;13.43;8.70;;;;;;;16.02;83.55;100955.66;1926803;74;21076;-60
2021/06/12 02:35:31;;;;;;;10.75;7.58;;;;;;;16.21;83.60;100956.78;1891901;76;21457;-60
2021/06/12 02:37:59;;;;;;;11.28;7.22;;;;;;;16.46;83.55;100955.30;1891926;76;21516;-59
2021/06/12 02:40:27;;;;;;;15.05;7.80;;;;;;;16.66;83.41;100953.25;1891966;76;21043;-59
2021/06/12 02:42:55;;;;;;;9.28;7.37;;;;;;;16.83;83.09;100956.23;1891973;76;21112;-59
2021/06/12 02:45:25;;;;;;;11.60;7.90;;;;;;;17.01;82.61;100958.23;1891849;76;21038;-60
2021/06/12 02:48:00;;;;;;;15.03;8.28;;;;;;;17.33;81.65;100951.70;1891925;76;21039;-59
2021/06/12 02:50:30;;;;;;;10.53;8.10;;;;;;;17.58;80.71;100960.78;1890701;76;21106;-59
2021/06/12 02:53:01;;;;;;;10.90;7.08;;;;;;;17.63;79.76;100963.13;1891920;76;21042;-60
2021/06/12 02:55:35;;;;;;;10.93;7.20;;;;;;;17.67;79.50;100968.63;1891156;76;21038;-60
2021/06/12 02:58:04;;;;;;;13.32;6.70;;;;;;;17.74;79.26;100968.61;1890798;76;21156;-60
2021/06/12 03:00:34;;;;;;;10.58;7.05;;;;;;;17.81;78.97;100969.07;1891979;76;21458;-60
2021/06/12 03:03:02;;;;;;;10.23;7.10;;;;;;;17.89;78.72;100972.09;1892039;76;21046;-59
2021/06/12 03:05:32;;;;;;;10.20;8.08;;;;;;;18.01;78.55;100966.45;1892121;76;21457;-59
2021/06/12 03:08:02;;;;;;;10.58;8.15;;;;;;;18.09;78.00;100961.00;1892077;76;21094;-59
2021/06/12 03:10:32;;;;;;;12.65;8.05;;;;;;;18.15;77.37;100958.39;1891978;76;21066;-61
2021/06/12 03:13:03;;;;;;;10.28;7.35;;;;;;;18.22;76.97;100958.36;1892170;76;21465;-59
2021/06/12 03:15:34;;;;;;;10.10;6.80;;;;;;;18.32;76.90;100953.25;1892136;76;21501;-59
2021/06/12 03:18:03;;;;;;;10.75;6.50;;;;;;;18.41;76.68;100955.28;1892202;76;21039;-59
2021/06/12 03:20:32;;;;;;;10.88;7.10;;;;;;;18.52;76.50;100962.06;1892107;76;21159;-59
2021/06/12 03:23:02;;;;;;;8.55;6.70;;;;;;;18.69;76.79;100966.71;1892177;76;21057;-59
2021/06/12 03:25:31;;;;;;;10.40;5.87;;;;;;;18.95;77.11;100968.06;1892020;76;21079;-60
2021/06/12 03:28:00;;;;;;;6.83;5.30;;;;;;;19.18;77.27;100967.28;1892198;76;21037;-60
2021/06/12 03:30:29;;;;;;;8.05;5.58;;;;;;;19.41;77.23;100970.95;1892041;76;21089;-59
2021/06/12 03:32:58;;;;;;;9.35;5.80;;;;;;;19.58;76.86;100974.21;1890079;76;21595;-60
2021/06/12 03:35:26;;;;;;;11.65;6.00;;;;;;;19.74;76.50;100973.48;1887805;76;21038;-59
2021/06/12 03:37:55;;;;;;;7.72;5.45;;;;;;;19.92;76.24;100969.06;1888345;76;21122;-60
2021/06/12 03:40:23;;;;;;;9.53;5.85;;;;;;;20.10;75.87;100972.18;1888372;76;21116;-63
2021/06/12 03:42:53;;;;;;;12.28;6.03;;;;;;;20.27;75.39;100974.45;1888247;76;21066;-59
2021/06/12 03:45:21;;;;;;;7.83;5.05;;;;;;;20.39;74.99;100976.16;1888254;76;21066;-59
2021/06/12 03:47:51;;;;;;;6.30;5.45;;;;;;;20.57;74.50;100977.06;1888244;76;21116;-60
2021/06/12 03:50:20;;;;;;;8.10;6.25;;;;;;;20.66;74.03;100969.69;1888211;76;21109;-59
2021/06/12 03:52:50;;;;;;;8.20;6.40;;;;;;;20.71;72.72;100977.34;1888309;76;21062;-58
2021/06/12 03:55:19;;;;;;;5.55;5.05;;;;;;;20.76;72.24;100977.34;1888336;76;21042;-58
2021/06/12 03:57:49;;;;;;;8.78;4.90;;;;;;;20.86;71.67;100985.99;1888386;76;21066;-58
2021/06/12 04:00:18;;;;;;;6.33;4.95;;;;;;;20.85;70.87;100981.63;1888330;76;21109;-58
2021/06/12 04:02:46;;;;;;;6.72;5.28;;;;;;;20.93;70.69;100983.20;1888118;76;21042;-58
2021/06/12 04:05:14;;;;;;;18.15;7.67;;;;;;;21.06;70.32;100985.77;1888522;76;21556;-57
2021/06/12 04:07:42;;;;;;;10.75;6.22;;;;;;;21.13;69.96;100989.16;1888375;76;21144;-58
2021/06/12 04:10:10;;;;;;;6.25;5.55;;;;;;;21.29;69.40;100991.48;1888437;76;21120;-58
2021/06/12 04:12:39;;;;;;;7.45;5.40;;;;;;;21.38;68.23;100992.57;1888303;76;21038;-58
2021/06/12 04:15:08;;;;;;;11.80;6.90;;;;;;;21.50;68.04;100990.25;1888220;76;21042;-59
2021/06/12 04:17:36;;;;;;;10.40;5.78;;;;;;;21.75;67.69;101000.32;1888336;76;21116;-58
2021/06/12 04:20:05;;;;;;;14.85;8.55;;;;;;;21.95;66.86;100992.81;1888290;76;21559;-58
2021/06/12 04:22:33;;;;;;;12.68;7.47;;;;;;;22.21;66.33;100995.15;1888318;76;21046;-58
2021/06/12 04:25:00;;;;;;;8.53;5.25;;;;;;;22.49;65.87;100992.34;1888406;76;21120;-58
2021/06/12 04:27:28;;;;;;;4.97;4.37;;;;;;;22.73;64.28;100998.77;1888350;76;21073;-58
2021/06/12 04:29:56;;;;;;;8.23;5.37;;;;;;;22.89;63.58;101002.83;1888231;76;21078;-58
2021/06/12 04:32:23;;;;;;;8.90;6.33;;;;;;;23.12;63.06;101002.17;1888355;76;21582;-58
2021/06/12 04:34:51;;;;;;;10.53;5.05;;;;;;;23.43;62.53;101008.36;1888342;76;21113;-58
2021/06/12 04:37:19;;;;;;;8.05;4.30;;;;;;;23.62;61.05;101008.89;1888418;76;21090;-58
2021/06/12 04:39:47;;;;;;;10.30;5.58;;;;;;;23.68;59.43;100999.42;1888367;76;21434;-58
2021/06/12 04:42:14;;;;;;;13.78;8.68;;;;;;;23.72;59.14;101006.25;1888352;76;21445;-59
2021/06/12 04:44:42;;;;;;;7.90;5.25;;;;;;;23.91;58.75;101008.64;1888456;76;21481;-58
2021/06/12 04:47:10;;;;;;;5.17;3.98;;;;;;;23.98;57.11;101013.81;1888434;76;21484;-58
2021/06/12 04:49:38;;;;;;;8.90;4.87;;;;;;;24.05;57.34;101017.61;1888429;76;21474;-58
2021/06/12 04:52:06;;;;;;;7.40;4.30;;;;;;;24.14;57.17;101010.03;1888405;76;21497;-58
2021/06/12 04:54:33;;;;;;;6.90;4.20;;;;;;;24.37;56.89;101013.80;1888307;76;21043;-58
2021/06/12 04:57:01;;;;;;;4.45;3.67;;;;;;;24.58;56.39;101018.53;1888301;76;21439;-58
2021/06/12 04:59:29;;;;;;;5.20;3.47;;;;;;;24.79;55.99;101013.48;1888316;76;21501;-58
2021/06/12 05:01:57;;;;;;;5.72;3.60;;;;;;;24.78;54.65;101011.77;1888335;76;21500;-58
2021/06/12 05:04:24;;;;;;;4.72;3.10;;;;;;;24.81;54.67;101011.48;1888359;76;21496;-58
2021/06/12 05:06:52;;;;;;;8.08;5.97;;;;;;;24.92;54.36;101011.31;1888428;76;21520;-58
2021/06/12 05:09:20;;;;;;;5.90;4.03;;;;;;;25.17;54.32;101009.77;1888209;76;21512;-59
2021/06/12 05:11:48;;;;;;;5.53;3.67;;;;;;;25.22;52.34;101009.34;1888409;76;21543;-58
2021/06/12 05:14:16;;;;;;;5.75;3.25;;;;;;;25.32;51.63;101012.86;1888324;76;21461;-58
2021/06/12 05:16:44;;;;;;;6.45;3.47;;;;;;;25.40;51.87;101000.84;1888282;76;21038;-58
2021/06/12 05:19:12;;;;;;;6.78;3.52;;;;;;;25.60;51.14;101012.84;1888287;76;21171;-59
2021/06/12 05:21:40;;;;;;;8.18;3.12;;;;;;;25.66;50.66;101005.52;1888412;76;21124;-58
2021/06/12 05:24:09;;;;;;;3.58;2.77;;;;;;;25.78;49.61;101010.17;1888159;76;21015;-58
2021/06/12 05:26:36;;;;;;;4.47;3.70;;;;;;;26.01;49.43;101009.27;1888397;76;21038;-58
2021/06/12 05:29:04;;;;;;;5.55;3.35;;;;;;;26.24;49.65;101013.68;1888388;76;21051;-58
2021/06/12 05:31:32;;;;;;;8.75;3.10;;;;;;;26.62;49.21;101008.12;1888318;76;21500;-58
2021/06/12 05:34:01;;;;;;;3.60;2.65;;;;;;;26.74;47.81;101005.47;1889371;76;21477;-58
2021/06/12 05:36:28;;;;;;;4.83;2.83;;;;;;;26.95;47.54;101007.30;1890854;76;21067;-59
2021/06/12 05:38:56;;;;;;;4.30;2.90;;;;;;;27.08;46.87;101003.32;1890743;76;21062;-58
2021/06/12 05:41:24;;;;;;;4.00;3.17;;;;;;;27.05;46.49;101002.28;1890819;76;21078;-58
2021/06/12 05:43:52;;;;;;;2.92;2.42;;;;;;;27.18;46.96;101007.23;1890657;76;21504;-58
2021/06/12 05:46:19;;;;;;;2.52;2.30;;;;;;;27.39;45.93;101001.43;1890827;76;21514;-58
2021/06/12 05:48:48;;;;;;;3.52;2.75;;;;;;;27.29;44.88;101002.41;1890845;76;21529;-58
2021/06/12 05:51:15;;;;;;;3.37;3.08;;;;;;;27.16;44.93;101003.34;1890703;76;21559;-58
2021/06/12 05:53:43;;;;;;;6.83;2.77;;;;;;;27.07;44.46;100997.56;1890894;76;21498;-58
2021/06/12 05:56:11;;;;;;;5.70;2.70;;;;;;;27.00;45.48;101001.91;1890788;76;21489;-58
2021/06/12 05:58:39;;;;;;;3.80;2.92;;;;;;;27.08;45.03;100996.56;1890720;76;21488;-58
2021/06/12 06:01:08;;;;;;;7.60;2.67;;;;;;;27.15;44.74;100998.97;1890727;76;21489;-58
2021/06/12 06:03:36;;;;;;;3.33;2.60;;;;;;;27.46;45.13;100998.41;1890620;76;21074;-58
2021/06/12 06:06:09;;;;;;;5.37;2.60;;;;;;;27.55;44.29;100996.08;1890853;76;21484;-58
2021/06/12 06:08:36;;;;;;;6.53;2.65;;;;;;;27.56;44.50;100988.31;1889014;76;21165;-58
2021/06/12 06:11:07;;;;;;;4.12;2.55;;;;;;;27.65;44.19;100978.38;1890753;76;21120;-59
2021/06/12 06:13:43;;;;;;;5.12;2.98;;;;;;;27.73;44.10;100980.56;1890744;76;21074;-58
2021/06/12 06:16:12;;;;;;;4.75;2.42;;;;;;;28.09;43.69;100987.56;1890738;76;21046;-58
2021/06/12 06:18:40;;;;;;;5.80;2.90;;;;;;;28.28;42.10;100980.98;1890703;76;21132;-59
2021/06/12 06:21:10;;;;;;;6.83;3.17;;;;;;;28.11;41.89;100984.20;1890853;76;21127;-59
2021/06/12 06:23:39;;;;;;;5.47;3.12;;;;;;;28.01;42.37;100980.29;1890772;76;21124;-59
2021/06/12 06:26:07;;;;;;;3.02;2.40;;;;;;;28.35;42.66;100980.64;1890714;76;21579;-59
2021/06/12 06:28:34;;;;;;;6.15;2.83;;;;;;;28.68;42.54;100981.47;1890607;76;21066;-59
2021/06/12 06:31:02;;;;;;;9.20;3.10;;;;;;;28.90;41.58;100979.53;1890838;76;21184;-59
2021/06/12 06:33:30;;;;;;;6.62;3.10;;;;;;;28.92;40.55;100981.55;1890736;76;21062;-58
2021/06/12 06:35:58;;;;;;;3.50;2.75;;;;;;;28.93;41.02;100985.45;1860010;77;21070;-58
2021/06/12 06:38:26;;;;;;;2.70;2.45;;;;;;;28.98;41.21;100982.23;1860039;77;21051;-58
2021/06/12 06:40:54;;;;;;;4.85;2.60;;;;;;;29.24;40.88;100982.82;1860021;77;21084;-59
2021/06/12 06:43:22;;;;;;;2.75;2.52;;;;;;;29.60;40.49;100978.23;1861845;77;21442;-59
2021/06/12 06:45:50;;;;;;;6.35;3.08;;;;;;;29.96;40.18;100983.09;1861960;77;21093;-58
2021/06/12 06:48:18;;;;;;;13.65;6.80;;;;;;;29.93;39.08;100978.02;1861857;77;21123;-58
2021/06/12 06:50:47;;;;;;;6.80;4.70;;;;;;;30.12;39.28;100983.98;1861872;77;21052;-59
2021/06/12 06:53:15;;;;;;;5.22;2.20;;;;;;;30.15;38.61;100976.83;1861847;77;21123;-59
2021/06/12 06:55:43;;;;;;;5.70;2.50;;;;;;;30.29;38.27;100975.20;1861750;77;21058;-59
2021/06/12 06:58:11;;;;;;;2.98;2.12;;;;;;;30.32;37.54;100974.81;1861837;77;21550;-59
2021/06/12 07:00:39;;;;;;;3.22;2.00;;;;;;;30.32;37.56;100974.31;1861883;77;21114;-58
2021/06/12 07:03:07;;;;;;;2.55;2.17;;;;;;;30.22;37.62;100977.80;1861852;77;21148;-58
2021/06/12 07:05:36;;;;;;;3.72;2.50;;;;;;;30.67;37.45;100974.66;1861848;77;21582;-58
2021/06/12 07:08:03;;;;;;;2.83;2.47;;;;;;;30.92;37.43;100968.98;1861828;77;21030;-59
2021/06/12 07:10:31;;;;;;;3.60;2.50;;;;;;;31.27;36.85;100974.67;1861704;77;21449;-58
2021/06/12 07:13:03;;;;;;;4.90;2.42;;;;;;;30.54;36.35;100968.53;1861855;77;21042;-57
2021/06/12 07:15:32;;;;;;;3.33;2.45;;;;;;;30.17;37.11;100970.18;1861976;77;21049;-58
2021/06/12 07:18:00;;;;;;;3.30;2.52;;;;;;;30.15;37.51;100971.41;1861811;77;21042;-57
2021/06/12 07:20:28;;;;;;;3.30;2.00;;;;;;;30.40;37.28;100970.19;1861385;77;21155;-59
2021/06/12 07:22:56;;;;;;;5.25;2.70;;;;;;;30.80;37.07;100971.28;1859860;77;21144;-60
2021/06/12 07:25:24;;;;;;;4.08;2.30;;;;;;;31.14;36.96;100977.54;1860118;77;21051;-59
2021/06/12 07:27:52;;;;;;;2.47;2.20;;;;;;;31.62;36.37;100974.89;1861887;77;21046;-58
2021/06/12 07:30:20;;;;;;;2.75;2.37;;;;;;;31.98;35.68;100972.63;1861822;77;21128;-64
2021/06/12 07:32:48;;;;;;;6.58;2.60;;;;;;;32.38;34.44;100971.63;1861777;77;21061;-58
2021/06/12 07:35:16;;;;;;;3.75;2.40;;;;;;;32.57;34.92;100970.91;1875537;76;21098;-59
2021/06/12 07:37:44;;;;;;;4.30;2.30;;;;;;;32.76;33.83;100976.72;1890749;76;21046;-59
2021/06/12 07:40:13;;;;;;;3.95;2.70;;;;;;;32.97;34.00;100972.55;1922965;74;21062;-59
2021/06/12 07:42:41;;;;;;;2.87;2.30;;;;;;;33.27;33.36;100970.42;1925528;74;21066;-58
2021/06/12 07:45:10;;;;;;;4.25;2.60;;;;;;;33.08;32.04;100963.78;1925529;74;21042;-59
2021/06/12 07:47:38;;;;;;;4.90;2.37;;;;;;;32.89;31.95;100968.64;1925401;74;21066;-60
2021/06/12 07:50:06;;;;;;;3.25;2.20;;;;;;;32.58;32.52;100979.45;1925448;74;21454;-58
2021/06/12 07:52:34;;;;;;;2.37;2.15;;;;;;;32.65;33.03;100976.79;1925566;74;21034;-59
2021/06/12 07:55:02;;;;;;;2.60;2.08;;;;;;;32.95;33.56;100976.00;1925465;74;21485;-59
2021/06/12 07:57:30;;;;;;;2.95;1.82;;;;;;;33.09;32.21;100974.20;1925467;74;21563;-58
2021/06/12 07:59:58;;;;;;;3.35;2.15;;;;;;;33.35;31.54;100981.67;1925492;74;21454;-58
2021/06/12 08:02:27;;;;;;;4.37;3.62;;;;;;;33.47;30.59;100982.74;1925445;74;21438;-59
2021/06/12 08:04:55;;;;;;;2.98;2.50;;;;;;;33.55;31.12;100974.05;1925613;74;21546;-59
2021/06/12 08:07:23;;;;;;;4.67;2.40;;;;;;;33.63;30.62;100982.07;1925631;74;21549;-59
2021/06/12 08:09:51;;;;;;;3.45;2.60;;;;;;;33.59;30.62;100983.00;1925510;74;21054;-59
2021/06/12 08:12:20;;;;;;;3.92;2.27;;;;;;;33.32;30.36;100975.78;1924979;74;21135;-60
2021/06/12 08:14:49;;;;;;;2.37;1.92;;;;;;;33.44;30.91;100972.26;1925421;74;21102;-61
2021/06/12 08:17:17;;;;;;;3.12;2.67;;;;;;;33.50;30.69;100973.32;1925477;74;21063;-59
2021/06/12 08:19:45;;;;;;;4.20;2.30;;;;;;;33.37;30.06;100970.56;1925389;74;21015;-59
2021/06/12 08:22:13;;;;;;;2.37;2.15;;;;;;;33.31;31.17;100968.13;1912182;74;21537;-60
2021/06/12 08:24:41;;;;;;;4.12;2.20;;;;;;;33.28;30.31;100974.81;1892344;76;21600;-59
2021/06/12 08:27:09;;;;;;;9.03;2.95;;;;;;;33.25;30.60;100975.74;1905180;75;21476;-59
2021/06/12 08:29:37;;;;;;;7.55;2.80;;;;;;;32.87;30.59;100970.73;1892288;76;21033;-59
2021/06/12 08:32:06;;;;;;;5.20;2.40;;;;;;;32.76;31.18;100966.68;1892363;76;21069;-59
2021/06/12 08:34:34;;;;;;;4.00;3.30;;;;;;;32.86;31.69;100974.48;1892357;76;21094;-59
2021/06/12 08:37:03;;;;;;;4.97;2.83;;;;;;;32.94;32.21;100966.13;1884337;76;21065;-59
2021/06/12 08:39:32;;;;;;;7.17;2.30;;;;;;;33.09;32.07;100953.20;1883726;76;21010;-59
2021/06/12 08:42:00;;;;;;;3.22;2.60;;;;;;;32.86;31.44;100966.30;1883420;76;21132;-59
2021/06/12 08:44:28;;;;;;;3.50;2.40;;;;;;;32.79;30.88;100972.24;1883792;76;21481;-59
2021/06/12 08:46:56;;;;;;;3.60;2.52;;;;;;;32.80;30.79;100963.86;1883651;76;21033;-59
2021/06/12 08:49:24;;;;;;;3.45;2.58;;;;;;;32.55;31.09;100958.01;1883674;76;21583;-59
2021/06/12 08:51:53;;;;;;;3.12;2.20;;;;;;;32.76;31.97;100968.55;1883653;76;21144;-59
2021/06/12 08:54:24;;;;;;;7.00;3.50;;;;;;;32.87;30.54;100965.28;1883733;76;21078;-59
2021/06/12 08:56:52;;;;;;;3.05;2.30;;;;;;;32.78;29.20;100967.31;1882849;76;21039;-59
2021/06/12 08:59:20;;;;;;;6.87;2.95;;;;;;;32.57;29.28;100960.01;1881791;76;21070;-58
2021/06/12 09:01:48;;;;;;;4.97;2.60;;;;;;;32.53;31.05;100954.64;1881794;76;21605;-59
2021/06/12 09:04:33;;;;;;;4.10;2.50;;;;;;;32.51;31.94;100952.64;1881926;76;21497;-59
2021/06/12 09:07:21;;;;;;;4.67;2.37;;;;;;;32.28;31.84;100951.55;1881766;76;21043;-59
2021/06/12 09:09:51;;;;;;;3.35;2.37;;;;;;;32.40;29.83;100961.38;1881835;76;21058;-59
2021/06/12 09:12:21;;;;;;;4.42;2.20;;;;;;;32.08;30.56;100954.95;1881787;76;21058;-59
2021/06/12 09:15:08;;;;;;;4.35;2.30;;;;;;;32.31;30.57;100963.39;1881810;76;21043;-61
2021/06/12 09:17:48;;;;;;;4.28;2.58;;;;;;;32.40;31.07;100952.67;1881767;76;21137;-59
2021/06/12 09:20:23;;;;;;;4.37;2.67;;;;;;;32.25;31.14;100954.13;1882028;76;21050;-59
2021/06/12 09:22:54;;;;;;;3.70;2.40;;;;;;;31.48;32.46;100956.20;1866433;76;21093;-59
2021/06/12 09:25:39;;;;;;;2.70;2.45;;;;;;;31.02;32.76;100954.57;1869302;76;21055;-58
2021/06/12 09:28:07;;;;;;;5.65;2.95;;;;;;;30.95;33.23;100954.99;1881686;76;21180;-59
2021/06/12 09:30:36;;;;;;;3.25;2.37;;;;;;;31.43;32.86;100958.13;1881833;76;21596;-59
2021/06/12 09:33:05;;;;;;;4.33;2.70;;;;;;;31.91;32.77;100950.27;1881782;76;21015;-59
2021/06/12 09:35:35;;;;;;;8.35;6.47;;;;;;;31.77;32.62;100944.37;1882477;76;21113;-59
2021/06/12 09:38:05;;;;;;;4.10;3.40;;;;;;;32.09;32.63;100951.20;1890747;76;21021;-59
2021/06/12 09:40:34;;;;;;;4.42;2.98;;;;;;;32.57;32.00;100945.55;1887010;76;21132;-60
2021/06/12 09:43:02;;;;;;;8.65;2.98;;;;;;;32.55;32.75;100944.38;1890222;76;21112;-58
2021/06/12 09:45:36;;;;;;;6.30;2.72;;;;;;;32.11;32.26;100945.52;1890723;76;21476;-59
2021/06/12 09:48:19;;;;;;;2.90;2.20;;;;;;;31.72;32.29;100944.97;1915117;74;21086;-59
2021/06/12 09:50:47;;;;;;;;;;;;;;;31.44;31.94;100945.36;1925408;74;21102;-61
2021/06/12 09:53:37;;;;;;;9.43;4.60;;;;;;;30.94;32.73;100954.69;1922837;74;20468;-60
2021/06/12 09:55:53;;;;;;;7.30;5.05;;;;;;;31.03;34.57;100950.83;1921616;74;21554;-59
2021/06/12 09:58:23;;;;;;;4.25;2.42;;;;;;;31.43;34.49;100949.09;1922872;74;21522;-61
2021/06/12 10:00:51;;;;;;;4.12;3.10;;;;;;;31.24;33.67;100946.48;1920887;74;21042;-60
2021/06/12 10:03:28;;;;;;;4.20;3.17;;;;;;;31.20;33.87;100939.22;1922817;74;21470;-60
2021/06/12 10:06:21;;;;;;;6.42;3.45;;;;;;;30.96;34.46;100939.86;1922690;74;21217;-60
2021/06/12 10:08:49;;;;;;;9.30;7.22;;;;;;;30.71;35.72;100940.66;1921756;74;21106;-60
2021/06/12 10:11:19;;;;;;;10.43;6.87;;;;;;;31.05;34.79;100941.97;1922973;74;21054;-59
2021/06/12 10:13:47;;;;;;;7.55;5.17;;;;;;;31.00;34.83;100944.41;1922840;74;21119;-59
2021/06/12 10:16:16;;;;;;;15.50;9.73;;;;;;;31.00;34.20;100941.69;1922852;74;21034;-59
2021/06/12 10:18:46;;;;;;;4.90;4.00;;;;;;;30.56;35.07;100947.94;1922843;74;21587;-59
2021/06/12 10:21:15;;;;;;;16.65;9.75;;;;;;;30.64;34.78;100938.88;1922884;74;21022;-59
2021/06/12 10:23:45;;;;;;;6.67;4.85;;;;;;;30.86;35.20;100940.65;1922878;74;21059;-59
2021/06/12 10:26:15;;;;;;;9.83;5.75;;;;;;;31.11;35.72;100941.20;1922763;74;21063;-59
2021/06/12 10:28:43;;;;;;;6.72;3.52;;;;;;;31.20;34.96;100935.66;1922982;74;21415;-59
2021/06/12 10:31:14;;;;;;;11.12;8.00;;;;;;;31.54;35.31;100933.69;1922903;74;21001;-60
2021/06/12 10:33:48;;;;;;;8.48;3.70;;;;;;;31.74;34.25;100918.88;1922879;74;21179;-59
2021/06/12 10:36:21;;;;;;;5.12;3.67;;;;;;;31.18;35.65;100931.24;1922774;74;21240;-59
2021/06/12 10:38:51;;;;;;;6.58;3.95;;;;;;;31.13;36.34;100931.00;1922663;74;21054;-59
2021/06/12 10:41:34;;;;;;;57.35;37.45;;;;;;;30.97;36.55;100932.56;1922956;74;21062;-59
2021/06/12 10:44:03;;;;;;;4.70;3.50;;;;;;;30.78;37.13;100932.08;1922932;74;21083;-59
2021/06/12 10:46:32;;;;;;;15.35;7.92;;;;;;;30.68;37.11;100924.72;1922864;74;21059;-58
2021/06/12 10:49:02;;;;;;;8.75;4.50;;;;;;;30.63;37.15;100931.75;1922793;74;21141;-59
2021/06/12 10:51:34;;;;;;;5.55;3.05;;;;;;;30.50;37.02;100926.44;1922846;74;21051;-58
2021/06/12 10:54:20;;;;;;;7.65;3.60;;;;;;;30.32;36.31;100921.36;1922896;74;21127;-59
2021/06/12 10:56:53;;;;;;;8.83;3.02;;;;;;;30.16;36.22;100922.88;1922785;74;21154;-59
2021/06/12 10:59:45;;;;;;;5.30;2.70;;;;;;;30.06;35.76;100924.98;1922172;74;21140;-60
2021/06/12 11:02:19;;;;;;;4.10;2.70;;;;;;;29.73;35.90;100925.22;1922907;74;21148;-59
2021/06/12 11:05:06;;;;;;;4.83;2.30;;;;;;;29.61;35.99;100924.81;1922918;74;21099;-59
2021/06/12 11:07:36;;;;;;;2.70;2.50;;;;;;;29.54;36.32;100919.25;1922838;74;21099;-59
2021/06/12 11:10:16;;;;;;;6.12;3.60;;;;;;;29.52;35.94;100915.04;1922774;74;21056;-59
2021/06/12 11:12:49;;;;;;;10.25;6.90;;;;;;;29.44;36.61;100915.42;1922941;74;21136;-58
2021/06/12 11:15:29;;;;;;;14.43;8.15;;;;;;;29.47;37.56;100910.14;1922862;74;21063;-58
2021/06/12 11:18:20;;;;;;;4.22;2.60;;;;;;;29.65;37.29;100913.40;1921719;74;21176;-59
2021/06/12 11:21:03;;;;;;;5.22;2.70;;;;;;;29.74;36.16;100911.50;1922831;74;21062;-58
2021/06/12 11:23:53;;;;;;;3.12;2.35;;;;;;;29.75;35.82;100911.85;1922962;74;21069;-59
2021/06/12 11:26:18;;;;;;;2.83;2.52;;;;;;;29.54;35.00;100907.04;1922875;74;21165;-58
2021/06/12 11:28:48;;;;;;;6.95;4.08;;;;;;;29.21;35.71;100908.59;1922897;74;21105;-59
2021/06/12 11:31:30;;;;;;;5.92;3.47;;;;;;;29.17;36.54;100911.34;1923128;74;21058;-58
2021/06/12 11:34:19;;;;;;;4.17;2.25;;;;;;;29.15;36.21;100910.67;1922434;74;21035;-59